createdAt,value
2018-04-06T00:01:27.438Z,3.60
2018-04-06T00:03:55.065Z,3.57
2018-04-06T00:06:22.642Z,3.70
2018-04-06T00:08:50.323Z,3.00
2018-04-06T00:11:17.966Z,3.37
2018-04-06T00:13:45.610Z,3.23
2018-04-06T00:16:13.206Z,4.70
2018-04-06T00:18:40.835Z,3.73
2018-04-06T00:21:08.414Z,3.37
2018-04-06T00:23:36.042Z,2.47
2018-04-06T00:26:03.631Z,3.33
2018-04-06T00:28:31.261Z,3.10
2018-04-06T00:30:58.917Z,2.63
2018-04-06T00:33:26.546Z,3.63
2018-04-06T00:35:54.132Z,3.50
2018-04-06T00:38:21.754Z,2.97
2018-04-06T00:40:49.456Z,2.50
2018-04-06T00:43:17.084Z,3.07
2018-04-06T00:45:44.755Z,2.50
2018-04-06T00:48:12.351Z,3.23
2018-04-06T00:50:39.983Z,2.77
2018-04-06T00:53:19.191Z,2.90
2018-04-06T00:55:46.814Z,3.30
2018-04-06T00:58:14.413Z,2.60
2018-04-06T01:00:42.062Z,3.27
2018-04-06T01:03:09.650Z,3.40
2018-04-06T01:05:37.270Z,2.90
2018-04-06T01:08:04.834Z,2.90
2018-04-06T01:10:32.459Z,3.20
2018-04-06T01:13:00.124Z,3.00
2018-04-06T01:15:27.757Z,4.00
2018-04-06T01:17:55.384Z,2.57
2018-04-06T01:20:23.019Z,2.60
2018-04-06T01:22:50.602Z,3.10
2018-04-06T01:25:18.224Z,2.90
2018-04-06T01:27:45.842Z,2.90
2018-04-06T01:30:13.482Z,2.87
2018-04-06T01:32:41.083Z,2.73
2018-04-06T01:35:08.672Z,4.97
2018-04-06T01:37:36.291Z,3.37
2018-04-06T01:40:03.907Z,3.90
2018-04-06T01:42:31.523Z,2.53
2018-04-06T01:44:59.121Z,3.37
2018-04-06T01:47:26.793Z,2.27
2018-04-06T01:49:54.409Z,2.53
2018-04-06T01:52:22.018Z,3.63
2018-04-06T01:54:49.606Z,2.30
2018-04-06T01:57:17.330Z,2.80
2018-04-06T01:59:44.919Z,2.17
2018-04-06T02:02:12.539Z,3.60
2018-04-06T02:04:40.121Z,3.10
2018-04-06T02:07:07.726Z,3.20
2018-04-06T02:09:35.315Z,2.50
2018-04-06T02:12:02.944Z,3.07
2018-04-06T02:14:30.537Z,2.60
2018-04-06T02:16:58.210Z,2.93
2018-04-06T02:19:25.799Z,3.57
2018-04-06T02:21:53.391Z,2.97
2018-04-06T02:24:21.025Z,2.90
2018-04-06T02:26:48.630Z,3.43
2018-04-06T02:29:16.324Z,2.43
2018-04-06T02:31:43.930Z,2.73
2018-04-06T02:34:11.562Z,2.77
2018-04-06T02:36:39.144Z,2.60
2018-04-06T02:39:06.760Z,2.97
2018-04-06T02:41:34.355Z,3.63
2018-04-06T02:44:02.137Z,3.47
2018-04-06T02:46:29.757Z,3.50
2018-04-06T02:48:57.390Z,3.43
2018-04-06T02:51:24.996Z,4.30
2018-04-06T02:53:52.615Z,4.00
2018-04-06T02:56:20.447Z,3.03
2018-04-06T02:58:48.094Z,4.00
2018-04-06T03:01:15.673Z,3.90
2018-04-06T03:03:43.292Z,4.10
2018-04-06T03:06:10.886Z,5.10
2018-04-06T03:08:38.538Z,4.20
2018-04-06T03:11:06.131Z,5.03
2018-04-06T03:13:33.779Z,11.53
2018-04-06T03:16:01.402Z,4.53
2018-04-06T03:18:28.992Z,4.20
2018-04-06T03:20:56.610Z,3.47
2018-04-06T03:23:24.265Z,3.70
2018-04-06T03:25:51.982Z,4.20
2018-04-06T03:28:19.601Z,3.70
2018-04-06T03:30:47.221Z,3.30
2018-04-06T03:33:14.811Z,3.67
2018-04-06T03:35:42.470Z,4.37
2018-04-06T03:38:10.071Z,4.33
2018-04-06T03:40:37.733Z,4.17
2018-04-06T03:43:05.325Z,4.20
2018-04-06T03:45:32.955Z,4.23
2018-04-06T03:48:00.592Z,4.17
2018-04-06T03:50:28.208Z,3.93
2018-04-06T03:52:55.796Z,3.67
2018-04-06T03:55:23.411Z,5.50
2018-04-06T03:57:51.137Z,4.67
2018-04-06T04:00:18.768Z,4.43
2018-04-06T04:02:46.347Z,4.40
2018-04-06T04:05:13.978Z,4.50
2018-04-06T04:07:41.555Z,4.30
2018-04-06T04:10:09.196Z,6.03
2018-04-06T04:12:36.783Z,5.77
2018-04-06T04:15:04.516Z,5.13
2018-04-06T04:17:32.100Z,5.67
2018-04-06T04:19:59.677Z,4.53
2018-04-06T04:22:27.301Z,5.70
2018-04-06T04:24:54.899Z,5.43
2018-04-06T04:27:22.517Z,5.23
2018-04-06T04:29:50.123Z,4.53
2018-04-06T04:32:17.764Z,4.63
2018-04-06T04:34:45.397Z,3.70
2018-04-06T04:37:13.031Z,5.13
2018-04-06T04:39:40.618Z,4.07
2018-04-06T04:42:08.255Z,5.00
2018-04-06T04:44:35.933Z,4.67
2018-04-06T04:47:03.565Z,4.67
2018-04-06T04:49:31.182Z,4.40
2018-04-06T04:51:58.801Z,5.30
2018-04-06T04:54:26.392Z,4.97
2018-04-06T04:56:54.020Z,4.97
2018-04-06T04:59:21.654Z,4.27
2018-04-06T05:01:49.287Z,4.50
2018-04-06T05:04:16.936Z,4.90
2018-04-06T05:06:44.519Z,5.00
2018-04-06T05:09:12.143Z,5.00
2018-04-06T05:11:39.737Z,4.60
2018-04-06T05:14:07.438Z,4.68
2018-04-06T05:16:35.080Z,4.50
2018-04-06T05:19:02.707Z,5.57
2018-04-06T05:21:30.371Z,4.97
2018-04-06T05:23:58.052Z,4.90
2018-04-06T05:26:25.706Z,5.45
2018-04-06T05:28:53.326Z,4.90
2018-04-06T05:31:20.917Z,4.90
2018-04-06T05:33:48.540Z,6.90
2018-04-06T05:36:16.145Z,5.70
2018-04-06T05:38:43.824Z,5.90
2018-04-06T05:41:11.432Z,7.15
2018-04-06T05:43:39.130Z,7.65
2018-04-06T05:46:06.719Z,6.90
2018-04-06T05:48:34.414Z,6.53
2018-04-06T05:51:02.037Z,6.93
2018-04-06T05:53:29.747Z,7.62
2018-04-06T05:55:57.455Z,6.07
2018-04-06T05:58:25.053Z,6.80
2018-04-06T06:00:52.838Z,7.53
2018-04-06T06:03:20.457Z,7.33
2018-04-06T06:05:48.078Z,6.30
2018-04-06T06:08:15.754Z,6.87
2018-04-06T06:10:43.465Z,7.90
2018-04-06T06:13:11.166Z,7.05
2018-04-06T06:15:38.870Z,8.38
2018-04-06T06:18:06.586Z,7.43
2018-04-06T06:20:34.302Z,6.95
2018-04-06T06:23:01.978Z,6.67
2018-04-06T06:25:29.684Z,6.30
2018-04-06T06:27:57.283Z,6.90
2018-04-06T06:30:44.646Z,14.57
2018-04-06T06:33:12.239Z,11.03
2018-04-06T06:35:39.878Z,7.60
2018-04-06T06:38:07.477Z,8.90
2018-04-06T06:40:35.084Z,9.47
2018-04-06T06:43:02.885Z,7.25
2018-04-06T06:45:30.507Z,8.93
2018-04-06T06:47:58.166Z,8.53
2018-04-06T06:50:25.783Z,10.63
2018-04-06T06:52:53.416Z,15.60
2018-04-06T06:55:21.031Z,7.30
2018-04-06T06:57:48.654Z,6.30
2018-04-06T07:00:16.235Z,7.00
2018-04-06T07:02:43.883Z,7.90
2018-04-06T07:05:11.520Z,6.80
2018-04-06T07:07:39.151Z,5.90
2018-04-06T07:10:06.739Z,6.20
2018-04-06T07:12:34.414Z,5.30
2018-04-06T07:15:02.027Z,4.77
2018-04-06T07:17:29.622Z,4.80
2018-04-06T07:19:57.259Z,4.40
2018-04-06T07:22:24.878Z,5.70
2018-04-06T07:24:52.491Z,4.80
2018-04-06T07:27:20.094Z,5.00
2018-04-06T07:29:47.750Z,6.30
2018-04-06T07:32:15.330Z,5.10
2018-04-06T07:34:42.963Z,5.90
2018-04-06T07:37:10.570Z,5.10
2018-04-06T07:39:38.194Z,4.57
2018-04-06T07:42:05.794Z,4.37
2018-04-06T07:44:33.458Z,4.43
2018-04-06T07:47:01.050Z,5.00
2018-04-06T07:49:28.778Z,4.40
2018-04-06T07:51:56.373Z,5.73
2018-04-06T07:54:24.019Z,4.00
2018-04-06T07:56:51.605Z,4.77
2018-04-06T07:59:19.233Z,5.10
2018-04-06T08:01:46.830Z,4.43
2018-04-06T08:04:14.521Z,4.10
2018-04-06T08:06:42.122Z,5.67
2018-04-06T08:09:09.721Z,3.37
2018-04-06T08:11:37.352Z,3.40
2018-04-06T08:14:04.942Z,3.30
2018-04-06T08:16:32.678Z,4.73
2018-04-06T08:19:00.280Z,3.73
2018-04-06T08:21:27.978Z,4.40
2018-04-06T08:23:55.577Z,4.13
2018-04-06T08:26:23.210Z,4.37
2018-04-06T08:28:50.831Z,4.30
2018-04-06T08:31:18.517Z,3.97
2018-04-06T08:33:46.116Z,3.73
2018-04-06T08:36:13.771Z,3.77
2018-04-06T08:38:41.354Z,3.40
2018-04-06T08:41:08.986Z,4.97
2018-04-06T08:43:36.687Z,3.77
2018-04-06T08:46:04.339Z,3.90
2018-04-06T08:48:31.987Z,3.87
2018-04-06T08:50:59.628Z,3.97
2018-04-06T08:53:27.214Z,3.10
2018-04-06T08:55:54.855Z,3.20
2018-04-06T08:58:22.492Z,3.17
2018-04-06T09:00:50.127Z,2.90
2018-04-06T09:03:17.725Z,3.00
2018-04-06T09:05:45.315Z,2.70
2018-04-06T09:08:12.955Z,3.33
2018-04-06T09:10:40.600Z,3.07
2018-04-06T09:13:08.269Z,3.00
2018-04-06T09:15:35.861Z,2.00
2018-04-06T09:18:03.482Z,2.90
2018-04-06T09:20:31.074Z,2.70
2018-04-06T09:22:58.766Z,2.37
2018-04-06T09:25:26.366Z,2.03
2018-04-06T09:27:54.009Z,2.27
2018-04-06T09:30:21.605Z,1.80
2018-04-06T09:32:49.277Z,2.70
2018-04-06T09:35:17.002Z,2.53
2018-04-06T09:37:44.658Z,2.30
2018-04-06T09:40:12.262Z,1.70
2018-04-06T09:42:39.907Z,1.80
2018-04-06T09:45:07.510Z,2.20
2018-04-06T09:47:35.139Z,2.40
2018-04-06T09:50:02.747Z,2.60
2018-04-06T09:52:30.377Z,2.17
2018-04-06T09:54:58.029Z,2.53
2018-04-06T09:57:25.722Z,2.13
2018-04-06T09:59:53.336Z,1.80
2018-04-06T10:02:20.953Z,1.80
2018-04-06T10:04:48.596Z,1.80
2018-04-06T10:07:16.202Z,1.30
2018-04-06T10:09:43.823Z,1.43
2018-04-06T10:12:11.437Z,1.93
2018-04-06T10:14:39.103Z,1.53
2018-04-06T10:17:06.691Z,1.80
2018-04-06T10:19:34.351Z,1.43
2018-04-06T10:22:02.005Z,1.53
2018-04-06T10:24:29.600Z,1.27
2018-04-06T10:26:57.263Z,1.90
2018-04-06T10:29:24.976Z,1.80
2018-04-06T10:31:52.595Z,1.70
2018-04-06T10:34:20.231Z,1.33
2018-04-06T10:36:47.851Z,1.67
2018-04-06T10:39:15.508Z,1.80
2018-04-06T10:41:43.112Z,3.63
2018-04-06T10:44:10.749Z,1.50
2018-04-06T10:46:38.330Z,1.60
2018-04-06T10:49:06.030Z,1.80
2018-04-06T10:51:33.639Z,1.40
2018-04-06T10:54:01.238Z,1.47
2018-04-06T10:56:28.948Z,1.60
2018-04-06T10:58:56.559Z,1.60
2018-04-06T11:01:24.189Z,1.30
2018-04-06T11:03:51.971Z,1.40
2018-04-06T11:06:19.612Z,2.07
2018-04-06T11:08:47.232Z,1.77
2018-04-06T11:11:14.875Z,1.43
2018-04-06T11:13:42.531Z,1.60
2018-04-06T11:16:10.206Z,1.60
2018-04-06T11:18:37.905Z,1.73
2018-04-06T11:21:05.581Z,1.50
2018-04-06T11:23:33.229Z,6.00
2018-04-06T11:26:00.887Z,1.63
2018-04-06T11:28:28.484Z,1.40
2018-04-06T11:30:56.173Z,1.60
2018-04-06T11:33:23.780Z,2.57
2018-04-06T11:35:51.399Z,1.30
2018-04-06T11:38:19.180Z,2.03
2018-04-06T11:40:46.801Z,1.83
2018-04-06T11:43:14.401Z,1.60
2018-04-06T11:45:42.042Z,1.37
2018-04-06T11:48:09.638Z,1.60
2018-04-06T11:50:37.358Z,1.60
2018-04-06T11:53:05.037Z,1.40
2018-04-06T11:55:32.655Z,2.13
2018-04-06T11:58:00.284Z,2.10
2018-04-06T12:00:28.031Z,4.67
2018-04-06T12:02:55.953Z,1.60
2018-04-06T12:05:23.574Z,1.30
2018-04-06T12:07:51.416Z,1.37
2018-04-06T12:10:19.014Z,1.63
2018-04-06T12:12:46.846Z,1.90
2018-04-06T12:15:14.450Z,1.07
2018-04-06T12:17:42.106Z,1.70
2018-04-06T12:20:09.747Z,1.43
2018-04-06T12:22:37.402Z,1.40
2018-04-06T12:25:05.062Z,1.37
2018-04-06T12:27:32.718Z,1.70
2018-04-06T12:30:00.354Z,1.50
2018-04-06T12:32:28.147Z,1.60
2018-04-06T12:34:55.742Z,1.40
2018-04-06T12:37:23.396Z,1.50
2018-04-06T12:39:50.998Z,1.40
2018-04-06T12:42:18.676Z,1.23
2018-04-06T12:44:46.304Z,1.30
2018-04-06T12:47:13.999Z,1.27
2018-04-06T12:49:41.595Z,1.30
2018-04-06T12:52:09.202Z,1.43
2018-04-06T12:54:36.837Z,1.20
2018-04-06T12:57:04.442Z,1.20
2018-04-06T12:59:32.094Z,1.50
2018-04-06T13:01:59.715Z,1.70
2018-04-06T13:04:27.361Z,1.00
2018-04-06T13:06:54.976Z,1.43
2018-04-06T13:09:22.889Z,2.10
2018-04-06T13:11:50.490Z,6.10
2018-04-06T13:14:18.135Z,1.60
2018-04-06T13:16:45.838Z,1.40
2018-04-06T13:19:13.481Z,1.50
2018-04-06T13:21:41.090Z,2.00
2018-04-06T13:24:08.741Z,1.10
2018-04-06T13:26:36.356Z,2.30
2018-04-06T13:29:03.978Z,1.43
2018-04-06T13:31:31.609Z,2.07
2018-04-06T13:33:59.210Z,2.60
2018-04-06T13:36:26.884Z,2.57
2018-04-06T13:38:54.547Z,2.40
2018-04-06T13:41:22.186Z,2.53
2018-04-06T13:43:49.796Z,1.70
2018-04-06T13:46:17.591Z,1.73
2018-04-06T13:48:45.188Z,1.70
2018-04-06T13:51:12.850Z,1.73
2018-04-06T13:53:40.462Z,1.53
2018-04-06T13:56:08.206Z,2.43
2018-04-06T13:58:35.808Z,1.83
2018-04-06T14:01:03.543Z,1.50
2018-04-06T14:03:31.023Z,1.50
2018-04-06T14:05:58.834Z,1.50
2018-04-06T14:08:26.527Z,1.70
2018-04-06T14:10:54.202Z,1.53
2018-04-06T14:13:21.811Z,1.80
2018-04-06T14:15:49.442Z,1.80
2018-04-06T14:18:17.220Z,1.77
2018-04-06T14:20:44.862Z,1.80
2018-04-06T14:23:12.466Z,1.50
2018-04-06T14:25:40.104Z,1.60
2018-04-06T14:28:07.757Z,1.73
2018-04-06T14:30:35.417Z,1.73
2018-04-06T14:33:03.058Z,1.70
2018-04-06T14:35:30.661Z,1.63
2018-04-06T14:37:58.332Z,1.53
2018-04-06T14:40:25.964Z,1.40
2018-04-06T14:42:53.586Z,1.70
2018-04-06T14:45:21.205Z,1.50
2018-04-06T14:47:48.833Z,2.00
2018-04-06T14:50:16.462Z,2.03
2018-04-06T14:52:44.308Z,1.83
2018-04-06T14:55:11.920Z,1.70
2018-04-06T14:57:39.571Z,1.90
2018-04-06T15:00:07.159Z,2.30
2018-04-06T15:02:34.815Z,1.80
2018-04-06T15:05:02.487Z,8.70
2018-04-06T15:07:30.126Z,2.90
2018-04-06T15:09:57.759Z,1.70
2018-04-06T15:12:25.411Z,1.77
2018-04-06T15:14:53.079Z,1.20
2018-04-06T15:17:20.859Z,1.47
2018-04-06T15:19:48.456Z,1.90
2018-04-06T15:22:16.090Z,2.03
2018-04-06T15:24:43.714Z,1.53
2018-04-06T15:27:11.451Z,4.23
2018-04-06T15:29:39.111Z,4.37
2018-04-06T15:32:06.725Z,4.20
2018-04-06T15:34:34.486Z,1.80
2018-04-06T15:37:02.171Z,1.37
2018-04-06T15:39:29.816Z,1.30
2018-04-06T15:41:57.472Z,2.27
2018-04-06T15:44:25.087Z,2.20
2018-04-06T15:46:52.757Z,2.10
2018-04-06T15:49:20.366Z,1.83
2018-04-06T15:51:48.030Z,1.80
2018-04-06T15:54:15.642Z,2.03
2018-04-06T15:56:43.290Z,1.20
2018-04-06T15:59:10.903Z,1.90
2018-04-06T16:01:38.567Z,1.70
2018-04-06T16:04:07.900Z,1.87
2018-04-06T16:06:35.580Z,2.87
2018-04-06T16:09:03.223Z,1.57
2018-04-06T16:11:30.852Z,1.33
2018-04-06T16:13:58.694Z,1.10
2018-04-06T16:16:26.376Z,1.40
2018-04-06T16:18:54.139Z,4.10
2018-04-06T16:21:21.802Z,2.50
2018-04-06T16:23:49.504Z,1.53
2018-04-06T16:26:17.153Z,1.37
2018-04-06T16:28:44.872Z,1.57
2018-04-06T16:31:12.582Z,2.80
2018-04-06T16:33:40.239Z,1.60
2018-04-06T16:36:07.858Z,1.83
2018-04-06T16:38:35.515Z,2.20
2018-04-06T16:41:03.272Z,2.10
2018-04-06T16:43:30.914Z,1.50
2018-04-06T16:45:58.627Z,1.73
2018-04-06T16:48:26.282Z,1.57
2018-04-06T16:50:53.910Z,1.10
2018-04-06T16:53:21.778Z,1.93
2018-04-06T16:55:49.387Z,3.70
2018-04-06T16:58:17.144Z,1.90
2018-04-06T17:00:44.793Z,1.40
2018-04-06T17:03:12.433Z,1.33
2018-04-06T17:05:40.098Z,1.93
2018-04-06T17:08:07.726Z,1.00
2018-04-06T17:10:35.481Z,0.90
2018-04-06T17:13:03.097Z,1.50
2018-04-06T17:15:30.764Z,1.20
2018-04-06T17:18:02.595Z,1.20
2018-04-06T17:43:57.833Z,1.40
2018-04-06T17:46:42.230Z,1.40
2018-04-06T17:49:10.020Z,2.20
2018-04-06T18:05:10.089Z,2.07
2018-04-06T18:07:38.433Z,1.40
2018-04-06T18:13:18.575Z,3.37
2018-04-06T18:15:48.267Z,1.77
2018-04-06T18:21:13.210Z,1.20
2018-04-06T18:23:40.921Z,1.53
2018-04-06T18:26:08.822Z,1.20
2018-04-06T18:28:36.483Z,1.50
2018-04-06T18:31:04.134Z,1.27
2018-04-06T18:33:31.804Z,1.17
2018-04-06T18:35:59.660Z,1.20
2018-04-06T18:38:27.384Z,1.00
2018-04-06T18:40:55.068Z,1.20
2018-04-06T18:43:22.768Z,1.30
2018-04-06T18:45:50.404Z,1.53
2018-04-06T18:48:18.158Z,1.43
2018-04-06T18:50:45.786Z,1.30
2018-04-06T18:53:13.398Z,1.30
2018-04-06T18:55:41.025Z,1.20
2018-04-06T18:58:08.679Z,1.20
2018-04-06T19:00:36.313Z,1.40
2018-04-06T19:03:03.986Z,1.67
2018-04-06T19:05:31.714Z,0.97
2018-04-06T19:07:59.373Z,1.70
2018-04-06T19:10:26.975Z,1.47
2018-04-06T19:12:54.696Z,1.30
2018-04-06T19:15:22.305Z,14.27
2018-04-06T19:17:49.978Z,1.80
2018-04-06T19:20:17.605Z,1.37
2018-04-06T19:22:45.247Z,1.27
2018-04-06T19:25:12.910Z,2.30
2018-04-06T19:27:40.552Z,1.63
2018-04-06T19:30:08.194Z,1.20
2018-04-06T19:32:35.885Z,1.60
2018-04-06T19:35:03.552Z,1.20
2018-04-06T19:37:31.151Z,2.20
2018-04-06T19:39:58.831Z,1.57
2018-04-06T19:42:26.466Z,1.93
2018-04-06T19:44:54.110Z,1.37
2018-04-06T19:47:21.734Z,20.80
2018-04-06T19:49:49.395Z,2.03
2018-04-06T19:52:17.014Z,2.40
2018-04-06T19:54:44.644Z,2.03
2018-04-06T19:57:12.245Z,1.80
2018-04-06T19:59:39.912Z,1.63
2018-04-06T20:02:07.665Z,2.00
2018-04-06T20:04:35.313Z,1.90
2018-04-06T20:07:02.942Z,1.73
2018-04-06T20:09:30.581Z,1.70
2018-04-06T20:11:58.201Z,2.10
2018-04-06T20:14:26.115Z,2.50
2018-04-06T20:16:53.746Z,2.73
2018-04-06T20:19:21.380Z,2.27
2018-04-06T20:21:49.026Z,2.37
2018-04-06T20:24:16.687Z,2.67
2018-04-06T20:26:44.402Z,2.23
2018-04-06T20:29:12.702Z,2.37
2018-04-06T20:31:41.980Z,2.40
2018-04-06T20:34:09.983Z,2.00
2018-04-06T20:36:37.706Z,2.50
2018-04-06T20:39:10.387Z,1.70
2018-04-06T20:41:41.400Z,2.27
2018-04-06T20:44:09.105Z,2.30
2018-04-06T20:46:36.758Z,2.17
2018-04-06T20:49:04.363Z,2.00
2018-04-06T20:51:32.028Z,2.03
2018-04-06T20:53:59.652Z,2.57
2018-04-06T20:56:27.286Z,2.50
2018-04-06T20:58:54.900Z,3.03
2018-04-06T21:01:22.575Z,2.33
2018-04-06T21:03:50.210Z,2.63
2018-04-06T21:06:17.806Z,2.40
2018-04-06T21:08:45.549Z,2.60
2018-04-06T21:11:13.164Z,2.33
2018-04-06T21:13:40.818Z,2.43
2018-04-06T21:16:08.511Z,2.40
2018-04-06T21:18:36.129Z,2.37
2018-04-06T21:21:04.373Z,2.60
2018-04-06T21:23:32.011Z,2.67
2018-04-06T21:25:59.655Z,2.93
2018-04-06T21:28:27.750Z,2.30
2018-04-06T21:30:55.650Z,2.70
2018-04-06T21:36:38.156Z,2.80
2018-04-06T21:39:16.302Z,2.60
2018-04-06T21:41:43.938Z,3.50
2018-04-06T21:44:11.583Z,3.00
2018-04-06T21:46:39.190Z,3.07
2018-04-06T21:49:06.819Z,2.23
2018-04-06T21:51:34.411Z,2.60
2018-04-06T21:54:02.101Z,2.30
2018-04-06T21:56:29.711Z,2.63
2018-04-06T21:58:57.352Z,2.70
2018-04-06T22:01:24.947Z,2.17
2018-04-06T22:03:52.604Z,2.40
2018-04-06T22:06:20.553Z,4.20
2018-04-06T22:08:48.244Z,2.67
2018-04-06T22:11:24.687Z,2.87
2018-04-06T22:13:52.961Z,2.77
2018-04-06T22:16:20.764Z,2.70
2018-04-06T22:18:48.526Z,3.13
2018-04-06T22:21:16.459Z,2.90
2018-04-06T22:23:44.278Z,3.73
2018-04-06T22:26:12.035Z,2.37
2018-04-06T22:28:39.775Z,2.70
2018-04-06T22:31:07.835Z,2.63
2018-04-06T22:33:37.321Z,2.40
2018-04-06T22:36:04.986Z,2.10
2018-04-06T22:38:32.576Z,2.90
2018-04-06T22:41:00.214Z,3.20
2018-04-06T22:43:27.834Z,2.77
2018-04-06T22:45:55.661Z,2.63
2018-04-06T22:48:24.731Z,2.80
2018-04-06T22:50:52.540Z,2.80
2018-04-06T22:53:20.322Z,2.70
2018-04-06T22:55:48.082Z,3.10
2018-04-06T22:58:15.899Z,3.07
2018-04-06T23:00:43.686Z,3.13
2018-04-06T23:03:11.365Z,3.00
2018-04-06T23:05:39.027Z,2.77
2018-04-06T23:08:06.619Z,2.37
2018-04-06T23:10:34.274Z,2.33
2018-04-06T23:13:01.889Z,2.77
2018-04-06T23:15:29.564Z,2.33
2018-04-06T23:17:57.212Z,2.30
2018-04-06T23:20:24.870Z,2.70
2018-04-06T23:22:52.488Z,3.00
2018-04-06T23:25:20.095Z,2.83
2018-04-06T23:27:47.719Z,2.50
2018-04-06T23:30:15.313Z,1.90
2018-04-06T23:32:42.946Z,2.40
2018-04-06T23:35:10.529Z,2.80
2018-04-06T23:37:38.179Z,2.20
2018-04-06T23:40:05.775Z,2.90
2018-04-06T23:42:33.438Z,2.83
2018-04-06T23:45:01.072Z,2.57
2018-04-06T23:47:28.714Z,3.13
2018-04-06T23:49:56.302Z,2.23
2018-04-06T23:52:23.959Z,2.70
2018-04-06T23:54:51.563Z,2.50
2018-04-06T23:57:19.306Z,3.03
2018-04-06T23:59:46.926Z,2.67
